This is the latest recevied weather packets stored in our database for station/object DL1VED. If no packets are shown the sender has not sent any weather packets the latest 10 day(s).
| Time | Temp. | Humidity | Pressure | Rain* | Wind** | Luminosity | Snow |
|---|---|---|---|---|---|---|---|
| 1777986848 | 16.11° C | 72% | 1007.3 hPa | 0 mm | - | - | - |
| 1777985948 | 16.67° C | 68% | 1007.3 hPa | 0 mm | - | - | - |
| 1777985048 | 17.22° C | 67% | 1007.3 hPa | 0 mm | - | - | - |
| 1777984148 | 17.78° C | 65% | 1007.3 hPa | 0 mm | - | - | - |
| 1777983248 | 17.78° C | 63% | 1007.3 hPa | 0 mm | - | - | - |
| 1777982348 | 17.78° C | 64% | 1007.3 hPa | 0 mm | - | - | - |
| 1777981448 | 18.89° C | 56% | 1007.3 hPa | 0 mm | - | - | - |
| 1777980548 | 19.44° C | 52% | 1007.4 hPa | 0 mm | - | - | - |
| 1777979648 | 19.44° C | 53% | 1007.6 hPa | 0 mm | - | - | - |
| 1777978748 | 18.89° C | 56% | 1007.7 hPa | 0 mm | - | - | - |
| 1777977848 | 19.44° C | 56% | 1007.8 hPa | 0 mm | - | - | - |
| 1777976948 | 18.89° C | 56% | 1007.9 hPa | 0 mm | - | - | - |
| 1777976048 | 19.44° C | 56% | 1008 hPa | 0 mm | - | - | - |
| 1777975148 | 18.89° C | 58% | 1008 hPa | 0 mm | - | - | - |
| 1777974248 | 18.89° C | 57% | 1008 hPa | 0 mm | - | - | - |
| 1777973348 | 18.33° C | 58% | 1008.2 hPa | 0 mm | - | - | - |
| 1777972448 | 18.33° C | 60% | 1008.2 hPa | 0 mm | - | - | - |
| 1777971548 | 18.89° C | 58% | 1008.2 hPa | 0 mm | - | - | - |
| 1777970648 | 20° C | 56% | 1008.2 hPa | 0 mm | - | - | - |
| 1777969748 | 19.44° C | 53% | 1008.3 hPa | 0 mm | - | - | - |
| 1777968848 | 18.89° C | 58% | 1008.3 hPa | 0 mm | - | - | - |
| 1777967948 | 18.33° C | 63% | 1008.5 hPa | 0 mm | - | - | - |
| 1777967048 | 17.22° C | 68% | 1008.5 hPa | 0 mm | - | - | - |
| 1777966148 | 16.11° C | 70% | 1008.7 hPa | 0 mm | - | - | - |
| 1777965248 | 16.11° C | 71% | 1008.8 hPa | 0 mm | - | - | - |
* Rain latest hour (hover to see other rain measurements)
** Current wind speed in m/s (hover to see current wind gust speed)